sensor_id;sensor_type;location;lat;lon;timestamp;P1;durP1;ratioP1;P2;durP2;ratioP2
26951;SDS011;14507;52.418;13.398;2023-08-20T00:01:27;14.77;;;11.25;;
26951;SDS011;14507;52.418;13.398;2023-08-20T00:03:53;18.33;;;11.38;;
26951;SDS011;14507;52.418;13.398;2023-08-20T00:06:20;15.85;;;12.30;;
26951;SDS011;14507;52.418;13.398;2023-08-20T00:08:46;14.27;;;11.23;;
26951;SDS011;14507;52.418;13.398;2023-08-20T00:11:12;13.45;;;11.80;;
26951;SDS011;14507;52.418;13.398;2023-08-20T00:13:39;16.92;;;11.55;;
26951;SDS011;14507;52.418;13.398;2023-08-20T00:16:04;15.82;;;11.52;;
26951;SDS011;14507;52.418;13.398;2023-08-20T00:18:30;13.10;;;11.52;;
26951;SDS011;14507;52.418;13.398;2023-08-20T00:20:56;15.27;;;11.65;;
26951;SDS011;14507;52.418;13.398;2023-08-20T00:23:23;14.18;;;11.20;;
26951;SDS011;14507;52.418;13.398;2023-08-20T00:25:48;14.40;;;11.55;;
26951;SDS011;14507;52.418;13.398;2023-08-20T00:28:14;13.43;;;10.82;;
26951;SDS011;14507;52.418;13.398;2023-08-20T00:30:40;13.90;;;10.82;;
26951;SDS011;14507;52.418;13.398;2023-08-20T00:33:05;18.55;;;11.57;;
26951;SDS011;14507;52.418;13.398;2023-08-20T00:35:31;13.55;;;11.07;;
26951;SDS011;14507;52.418;13.398;2023-08-20T00:37:57;15.25;;;10.93;;
26951;SDS011;14507;52.418;13.398;2023-08-20T00:40:23;14.30;;;11.48;;
26951;SDS011;14507;52.418;13.398;2023-08-20T00:42:49;12.63;;;10.80;;
26951;SDS011;14507;52.418;13.398;2023-08-20T00:45:15;15.35;;;11.38;;
26951;SDS011;14507;52.418;13.398;2023-08-20T00:47:44;14.43;;;11.85;;
26951;SDS011;14507;52.418;13.398;2023-08-20T00:50:09;13.88;;;11.05;;
26951;SDS011;14507;52.418;13.398;2023-08-20T00:52:37;14.10;;;11.05;;
26951;SDS011;14507;52.418;13.398;2023-08-20T00:55:06;14.43;;;11.65;;
26951;SDS011;14507;52.418;13.398;2023-08-20T00:57:34;13.80;;;11.63;;
26951;SDS011;14507;52.418;13.398;2023-08-20T01:00:00;15.52;;;11.10;;
26951;SDS011;14507;52.418;13.398;2023-08-20T01:02:29;14.60;;;11.50;;
26951;SDS011;14507;52.418;13.398;2023-08-20T01:04:54;14.02;;;11.55;;
26951;SDS011;14507;52.418;13.398;2023-08-20T01:12:27;18.00;;;11.20;;
26951;SDS011;14507;52.418;13.398;2023-08-20T01:14:54;15.38;;;11.68;;
26951;SDS011;14507;52.418;13.398;2023-08-20T01:17:19;14.10;;;10.65;;
26951;SDS011;14507;52.418;13.398;2023-08-20T01:19:45;15.55;;;10.70;;
26951;SDS011;14507;52.418;13.398;2023-08-20T01:25:19;14.05;;;10.93;;
26951;SDS011;14507;52.418;13.398;2023-08-20T01:28:28;17.65;;;10.15;;
26951;SDS011;14507;52.418;13.398;2023-08-20T01:30:55;13.00;;;10.20;;
26951;SDS011;14507;52.418;13.398;2023-08-20T01:35:49;13.52;;;10.43;;
26951;SDS011;14507;52.418;13.398;2023-08-20T01:38:18;17.75;;;11.35;;
26951;SDS011;14507;52.418;13.398;2023-08-20T01:40:44;14.98;;;10.10;;
26951;SDS011;14507;52.418;13.398;2023-08-20T01:43:10;14.93;;;10.38;;
26951;SDS011;14507;52.418;13.398;2023-08-20T01:45:36;14.27;;;10.25;;
26951;SDS011;14507;52.418;13.398;2023-08-20T01:48:02;15.10;;;10.00;;
26951;SDS011;14507;52.418;13.398;2023-08-20T01:50:28;12.13;;;10.03;;
26951;SDS011;14507;52.418;13.398;2023-08-20T01:52:54;14.20;;;10.27;;
26951;SDS011;14507;52.418;13.398;2023-08-20T01:55:20;13.43;;;9.88;;
26951;SDS011;14507;52.418;13.398;2023-08-20T01:57:46;17.45;;;10.27;;
26951;SDS011;14507;52.418;13.398;2023-08-20T02:00:12;11.93;;;9.10;;
26951;SDS011;14507;52.418;13.398;2023-08-20T02:02:38;14.35;;;9.82;;
26951;SDS011;14507;52.418;13.398;2023-08-20T02:05:03;11.07;;;9.13;;
26951;SDS011;14507;52.418;13.398;2023-08-20T02:07:29;13.45;;;9.63;;
26951;SDS011;14507;52.418;13.398;2023-08-20T02:09:55;10.85;;;9.07;;
26951;SDS011;14507;52.418;13.398;2023-08-20T02:12:20;13.20;;;9.65;;
26951;SDS011;14507;52.418;13.398;2023-08-20T02:14:46;13.80;;;9.32;;
26951;SDS011;14507;52.418;13.398;2023-08-20T02:17:12;10.77;;;8.98;;
26951;SDS011;14507;52.418;13.398;2023-08-20T02:19:38;12.18;;;9.10;;
26951;SDS011;14507;52.418;13.398;2023-08-20T02:22:03;11.68;;;8.95;;
26951;SDS011;14507;52.418;13.398;2023-08-20T02:24:29;12.90;;;9.20;;
26951;SDS011;14507;52.418;13.398;2023-08-20T02:26:55;12.70;;;9.57;;
26951;SDS011;14507;52.418;13.398;2023-08-20T02:29:21;13.85;;;9.00;;
26951;SDS011;14507;52.418;13.398;2023-08-20T02:31:46;11.88;;;9.10;;
26951;SDS011;14507;52.418;13.398;2023-08-20T02:34:12;13.00;;;9.25;;
26951;SDS011;14507;52.418;13.398;2023-08-20T02:36:38;13.50;;;9.27;;
26951;SDS011;14507;52.418;13.398;2023-08-20T02:39:03;19.38;;;9.82;;
26951;SDS011;14507;52.418;13.398;2023-08-20T02:41:32;13.80;;;8.82;;
26951;SDS011;14507;52.418;13.398;2023-08-20T02:44:01;12.55;;;9.07;;
26951;SDS011;14507;52.418;13.398;2023-08-20T02:46:30;12.55;;;8.55;;
26951;SDS011;14507;52.418;13.398;2023-08-20T02:48:55;12.10;;;8.75;;
26951;SDS011;14507;52.418;13.398;2023-08-20T02:51:21;14.20;;;8.55;;
26951;SDS011;14507;52.418;13.398;2023-08-20T02:53:47;12.07;;;8.52;;
26951;SDS011;14507;52.418;13.398;2023-08-20T02:56:13;13.35;;;8.65;;
26951;SDS011;14507;52.418;13.398;2023-08-20T02:58:38;11.30;;;8.88;;
26951;SDS011;14507;52.418;13.398;2023-08-20T03:01:04;11.85;;;9.23;;
26951;SDS011;14507;52.418;13.398;2023-08-20T03:03:30;15.45;;;8.65;;
26951;SDS011;14507;52.418;13.398;2023-08-20T03:05:56;11.65;;;8.60;;
26951;SDS011;14507;52.418;13.398;2023-08-20T03:08:21;11.93;;;9.10;;
26951;SDS011;14507;52.418;13.398;2023-08-20T03:10:47;12.75;;;8.70;;
26951;SDS011;14507;52.418;13.398;2023-08-20T03:13:12;13.38;;;8.52;;
26951;SDS011;14507;52.418;13.398;2023-08-20T03:15:39;9.75;;;8.27;;
26951;SDS011;14507;52.418;13.398;2023-08-20T03:18:05;11.35;;;8.70;;
26951;SDS011;14507;52.418;13.398;2023-08-20T03:20:31;12.43;;;9.48;;
26951;SDS011;14507;52.418;13.398;2023-08-20T03:22:56;11.32;;;9.00;;
26951;SDS011;14507;52.418;13.398;2023-08-20T03:25:22;14.88;;;9.00;;
26951;SDS011;14507;52.418;13.398;2023-08-20T03:27:49;15.05;;;8.88;;
26951;SDS011;14507;52.418;13.398;2023-08-20T03:30:16;15.65;;;9.57;;
26951;SDS011;14507;52.418;13.398;2023-08-20T03:32:42;14.80;;;8.38;;
26951;SDS011;14507;52.418;13.398;2023-08-20T03:35:07;13.65;;;9.30;;
26951;SDS011;14507;52.418;13.398;2023-08-20T03:37:33;12.02;;;8.27;;
26951;SDS011;14507;52.418;13.398;2023-08-20T03:39:59;15.30;;;9.00;;
26951;SDS011;14507;52.418;13.398;2023-08-20T03:42:24;13.07;;;8.63;;
26951;SDS011;14507;52.418;13.398;2023-08-20T03:44:50;12.70;;;8.93;;
26951;SDS011;14507;52.418;13.398;2023-08-20T03:47:16;15.63;;;9.15;;
26951;SDS011;14507;52.418;13.398;2023-08-20T03:49:45;11.65;;;8.73;;
26951;SDS011;14507;52.418;13.398;2023-08-20T03:52:11;13.25;;;9.43;;
26951;SDS011;14507;52.418;13.398;2023-08-20T03:54:37;11.90;;;8.80;;
26951;SDS011;14507;52.418;13.398;2023-08-20T03:57:02;13.52;;;8.93;;
26951;SDS011;14507;52.418;13.398;2023-08-20T03:59:29;12.98;;;8.77;;
26951;SDS011;14507;52.418;13.398;2023-08-20T04:01:55;15.68;;;9.40;;
26951;SDS011;14507;52.418;13.398;2023-08-20T04:04:21;14.75;;;9.48;;
26951;SDS011;14507;52.418;13.398;2023-08-20T04:06:47;12.25;;;9.10;;
26951;SDS011;14507;52.418;13.398;2023-08-20T04:09:13;12.27;;;9.60;;
26951;SDS011;14507;52.418;13.398;2023-08-20T04:11:38;11.15;;;8.88;;
26951;SDS011;14507;52.418;13.398;2023-08-20T04:14:04;11.57;;;9.45;;
26951;SDS011;14507;52.418;13.398;2023-08-20T04:16:29;15.68;;;9.93;;
26951;SDS011;14507;52.418;13.398;2023-08-20T04:18:55;15.65;;;9.30;;
26951;SDS011;14507;52.418;13.398;2023-08-20T04:21:21;12.35;;;9.10;;
26951;SDS011;14507;52.418;13.398;2023-08-20T04:23:47;14.98;;;9.60;;
26951;SDS011;14507;52.418;13.398;2023-08-20T04:26:12;14.32;;;9.15;;
26951;SDS011;14507;52.418;13.398;2023-08-20T04:28:38;12.90;;;9.80;;
26951;SDS011;14507;52.418;13.398;2023-08-20T04:31:04;15.25;;;9.80;;
26951;SDS011;14507;52.418;13.398;2023-08-20T04:33:29;14.73;;;9.68;;
26951;SDS011;14507;52.418;13.398;2023-08-20T04:35:55;11.23;;;9.38;;
26951;SDS011;14507;52.418;13.398;2023-08-20T04:38:21;15.30;;;9.07;;
26951;SDS011;14507;52.418;13.398;2023-08-20T04:40:48;13.93;;;9.82;;
26951;SDS011;14507;52.418;13.398;2023-08-20T04:43:14;13.23;;;9.48;;
26951;SDS011;14507;52.418;13.398;2023-08-20T04:45:40;14.02;;;10.13;;
26951;SDS011;14507;52.418;13.398;2023-08-20T04:48:06;12.23;;;9.35;;
26951;SDS011;14507;52.418;13.398;2023-08-20T04:50:32;12.68;;;10.05;;
26951;SDS011;14507;52.418;13.398;2023-08-20T04:52:58;13.70;;;9.55;;
26951;SDS011;14507;52.418;13.398;2023-08-20T04:55:25;14.65;;;11.73;;
26951;SDS011;14507;52.418;13.398;2023-08-20T04:57:51;15.60;;;9.98;;
26951;SDS011;14507;52.418;13.398;2023-08-20T05:00:17;14.77;;;10.93;;
26951;SDS011;14507;52.418;13.398;2023-08-20T05:02:42;14.25;;;10.52;;
26951;SDS011;14507;52.418;13.398;2023-08-20T05:05:08;14.88;;;11.13;;
26951;SDS011;14507;52.418;13.398;2023-08-20T05:07:35;14.38;;;10.25;;
26951;SDS011;14507;52.418;13.398;2023-08-20T05:10:00;14.55;;;10.15;;
26951;SDS011;14507;52.418;13.398;2023-08-20T05:12:27;17.42;;;11.23;;
26951;SDS011;14507;52.418;13.398;2023-08-20T05:14:53;13.57;;;10.27;;
26951;SDS011;14507;52.418;13.398;2023-08-20T05:17:18;12.88;;;10.25;;
26951;SDS011;14507;52.418;13.398;2023-08-20T05:19:44;15.13;;;10.38;;
26951;SDS011;14507;52.418;13.398;2023-08-20T05:22:10;15.90;;;10.38;;
26951;SDS011;14507;52.418;13.398;2023-08-20T05:24:37;13.57;;;10.15;;
26951;SDS011;14507;52.418;13.398;2023-08-20T05:27:03;14.95;;;11.02;;
26951;SDS011;14507;52.418;13.398;2023-08-20T05:29:30;15.43;;;10.65;;
26951;SDS011;14507;52.418;13.398;2023-08-20T05:31:56;14.30;;;10.30;;
26951;SDS011;14507;52.418;13.398;2023-08-20T05:34:21;13.50;;;10.23;;
26951;SDS011;14507;52.418;13.398;2023-08-20T05:36:47;14.88;;;10.52;;
26951;SDS011;14507;52.418;13.398;2023-08-20T05:39:12;15.80;;;10.27;;
26951;SDS011;14507;52.418;13.398;2023-08-20T05:41:38;16.00;;;10.77;;
26951;SDS011;14507;52.418;13.398;2023-08-20T05:44:04;13.23;;;9.77;;
26951;SDS011;14507;52.418;13.398;2023-08-20T05:46:29;14.45;;;11.15;;
26951;SDS011;14507;52.418;13.398;2023-08-20T05:48:55;18.85;;;10.57;;
26951;SDS011;14507;52.418;13.398;2023-08-20T05:51:21;16.70;;;10.65;;
26951;SDS011;14507;52.418;13.398;2023-08-20T05:53:46;14.25;;;10.02;;
26951;SDS011;14507;52.418;13.398;2023-08-20T05:56:12;13.55;;;9.52;;
26951;SDS011;14507;52.418;13.398;2023-08-20T05:58:37;16.38;;;11.45;;
26951;SDS011;14507;52.418;13.398;2023-08-20T06:01:03;13.82;;;9.82;;
26951;SDS011;14507;52.418;13.398;2023-08-20T06:03:28;16.02;;;10.52;;
26951;SDS011;14507;52.418;13.398;2023-08-20T06:05:56;15.82;;;11.10;;
26951;SDS011;14507;52.418;13.398;2023-08-20T06:08:22;19.08;;;11.00;;
26951;SDS011;14507;52.418;13.398;2023-08-20T06:10:48;18.50;;;11.18;;
26951;SDS011;14507;52.418;13.398;2023-08-20T06:13:13;14.90;;;10.63;;
26951;SDS011;14507;52.418;13.398;2023-08-20T06:15:39;15.43;;;10.15;;
26951;SDS011;14507;52.418;13.398;2023-08-20T06:18:05;16.45;;;11.30;;
26951;SDS011;14507;52.418;13.398;2023-08-20T06:20:30;15.40;;;10.80;;
26951;SDS011;14507;52.418;13.398;2023-08-20T06:22:56;12.50;;;10.18;;
26951;SDS011;14507;52.418;13.398;2023-08-20T06:25:22;15.77;;;10.75;;
26951;SDS011;14507;52.418;13.398;2023-08-20T06:27:47;15.65;;;11.40;;
26951;SDS011;14507;52.418;13.398;2023-08-20T06:30:13;12.93;;;10.20;;
26951;SDS011;14507;52.418;13.398;2023-08-20T06:32:38;12.80;;;9.70;;
26951;SDS011;14507;52.418;13.398;2023-08-20T06:35:04;16.17;;;10.68;;
26951;SDS011;14507;52.418;13.398;2023-08-20T06:37:30;13.05;;;10.55;;
26951;SDS011;14507;52.418;13.398;2023-08-20T06:39:56;16.35;;;9.88;;
26951;SDS011;14507;52.418;13.398;2023-08-20T06:42:21;12.07;;;8.95;;
26951;SDS011;14507;52.418;13.398;2023-08-20T06:44:47;13.50;;;9.18;;
26951;SDS011;14507;52.418;13.398;2023-08-20T06:47:12;11.50;;;8.93;;
26951;SDS011;14507;52.418;13.398;2023-08-20T06:49:40;13.45;;;9.73;;
26951;SDS011;14507;52.418;13.398;2023-08-20T06:52:06;13.95;;;10.10;;
26951;SDS011;14507;52.418;13.398;2023-08-20T06:54:31;13.70;;;9.85;;
26951;SDS011;14507;52.418;13.398;2023-08-20T06:56:57;13.77;;;9.98;;
26951;SDS011;14507;52.418;13.398;2023-08-20T06:59:22;13.90;;;9.48;;
26951;SDS011;14507;52.418;13.398;2023-08-20T07:01:48;16.95;;;9.68;;
26951;SDS011;14507;52.418;13.398;2023-08-20T07:04:14;12.63;;;9.27;;
26951;SDS011;14507;52.418;13.398;2023-08-20T07:06:40;15.20;;;10.10;;
26951;SDS011;14507;52.418;13.398;2023-08-20T07:09:06;14.40;;;10.13;;
26951;SDS011;14507;52.418;13.398;2023-08-20T07:11:32;14.38;;;9.75;;
26951;SDS011;14507;52.418;13.398;2023-08-20T07:13:58;18.77;;;9.45;;
26951;SDS011;14507;52.418;13.398;2023-08-20T07:16:23;12.48;;;9.73;;
26951;SDS011;14507;52.418;13.398;2023-08-20T07:18:49;13.02;;;9.85;;
26951;SDS011;14507;52.418;13.398;2023-08-20T07:21:14;16.27;;;9.70;;
26951;SDS011;14507;52.418;13.398;2023-08-20T07:23:40;15.27;;;10.93;;
26951;SDS011;14507;52.418;13.398;2023-08-20T07:26:07;15.43;;;10.73;;
26951;SDS011;14507;52.418;13.398;2023-08-20T07:28:34;16.25;;;10.80;;
26951;SDS011;14507;52.418;13.398;2023-08-20T07:31:18;16.85;;;10.75;;
26951;SDS011;14507;52.418;13.398;2023-08-20T07:33:47;16.35;;;11.30;;
26951;SDS011;14507;52.418;13.398;2023-08-20T07:36:14;16.35;;;10.40;;
26951;SDS011;14507;52.418;13.398;2023-08-20T07:38:40;15.20;;;10.85;;
26951;SDS011;14507;52.418;13.398;2023-08-20T07:41:07;14.57;;;9.90;;
26951;SDS011;14507;52.418;13.398;2023-08-20T07:43:34;14.95;;;10.20;;
26951;SDS011;14507;52.418;13.398;2023-08-20T07:46:00;14.52;;;10.07;;
26951;SDS011;14507;52.418;13.398;2023-08-20T07:48:25;18.98;;;10.32;;
26951;SDS011;14507;52.418;13.398;2023-08-20T07:50:51;16.15;;;10.50;;
26951;SDS011;14507;52.418;13.398;2023-08-20T07:53:16;12.63;;;9.10;;
26951;SDS011;14507;52.418;13.398;2023-08-20T07:55:42;13.13;;;8.70;;
26951;SDS011;14507;52.418;13.398;2023-08-20T07:58:09;12.30;;;8.43;;
26951;SDS011;14507;52.418;13.398;2023-08-20T08:00:35;11.63;;;7.82;;
26951;SDS011;14507;52.418;13.398;2023-08-20T08:03:00;9.77;;;7.07;;
26951;SDS011;14507;52.418;13.398;2023-08-20T08:05:26;8.48;;;6.43;;
26951;SDS011;14507;52.418;13.398;2023-08-20T08:07:51;11.57;;;6.50;;
26951;SDS011;14507;52.418;13.398;2023-08-20T08:10:17;8.55;;;5.90;;
26951;SDS011;14507;52.418;13.398;2023-08-20T08:12:43;8.18;;;5.80;;
26951;SDS011;14507;52.418;13.398;2023-08-20T08:15:08;9.50;;;5.22;;
26951;SDS011;14507;52.418;13.398;2023-08-20T08:17:34;7.15;;;5.18;;
26951;SDS011;14507;52.418;13.398;2023-08-20T08:20:00;8.52;;;5.50;;
26951;SDS011;14507;52.418;13.398;2023-08-20T08:22:25;7.07;;;4.85;;
26951;SDS011;14507;52.418;13.398;2023-08-20T08:24:54;9.63;;;5.00;;
26951;SDS011;14507;52.418;13.398;2023-08-20T08:27:19;9.63;;;5.35;;
26951;SDS011;14507;52.418;13.398;2023-08-20T08:29:45;7.72;;;4.60;;
26951;SDS011;14507;52.418;13.398;2023-08-20T08:32:10;6.93;;;4.43;;
26951;SDS011;14507;52.418;13.398;2023-08-20T08:34:36;9.23;;;4.72;;
26951;SDS011;14507;52.418;13.398;2023-08-20T08:37:02;7.32;;;4.35;;
26951;SDS011;14507;52.418;13.398;2023-08-20T08:39:28;6.65;;;4.15;;
26951;SDS011;14507;52.418;13.398;2023-08-20T08:41:54;6.85;;;4.03;;
26951;SDS011;14507;52.418;13.398;2023-08-20T08:44:26;6.60;;;3.50;;
26951;SDS011;14507;52.418;13.398;2023-08-20T08:46:52;5.55;;;3.67;;
26951;SDS011;14507;52.418;13.398;2023-08-20T08:49:18;6.53;;;3.47;;
26951;SDS011;14507;52.418;13.398;2023-08-20T08:51:44;5.63;;;3.30;;
26951;SDS011;14507;52.418;13.398;2023-08-20T08:54:12;6.93;;;3.53;;
26951;SDS011;14507;52.418;13.398;2023-08-20T08:56:40;7.10;;;3.67;;
26951;SDS011;14507;52.418;13.398;2023-08-20T08:59:05;6.85;;;3.90;;
26951;SDS011;14507;52.418;13.398;2023-08-20T09:01:31;6.13;;;3.30;;
26951;SDS011;14507;52.418;13.398;2023-08-20T09:03:57;5.55;;;2.83;;
26951;SDS011;14507;52.418;13.398;2023-08-20T09:06:22;7.40;;;3.13;;
26951;SDS011;14507;52.418;13.398;2023-08-20T09:08:48;5.50;;;2.70;;
26951;SDS011;14507;52.418;13.398;2023-08-20T09:11:13;4.60;;;2.85;;
26951;SDS011;14507;52.418;13.398;2023-08-20T09:13:41;6.00;;;2.90;;
26951;SDS011;14507;52.418;13.398;2023-08-20T09:16:11;4.15;;;2.60;;
26951;SDS011;14507;52.418;13.398;2023-08-20T09:18:41;5.13;;;2.60;;
26951;SDS011;14507;52.418;13.398;2023-08-20T09:21:10;5.35;;;2.72;;
26951;SDS011;14507;52.418;13.398;2023-08-20T09:23:37;5.00;;;2.30;;
26951;SDS011;14507;52.418;13.398;2023-08-20T09:26:04;7.70;;;2.60;;
26951;SDS011;14507;52.418;13.398;2023-08-20T09:28:41;6.28;;;2.80;;
26951;SDS011;14507;52.418;13.398;2023-08-20T09:31:08;4.90;;;2.57;;
26951;SDS011;14507;52.418;13.398;2023-08-20T09:33:33;5.57;;;2.65;;
26951;SDS011;14507;52.418;13.398;2023-08-20T09:35:59;6.13;;;2.40;;
26951;SDS011;14507;52.418;13.398;2023-08-20T09:38:24;4.70;;;2.10;;
26951;SDS011;14507;52.418;13.398;2023-08-20T09:40:51;5.45;;;2.28;;
26951;SDS011;14507;52.418;13.398;2023-08-20T09:45:43;5.30;;;2.45;;
26951;SDS011;14507;52.418;13.398;2023-08-20T09:48:12;3.53;;;2.10;;
26951;SDS011;14507;52.418;13.398;2023-08-20T09:50:42;4.38;;;2.33;;
26951;SDS011;14507;52.418;13.398;2023-08-20T09:53:22;5.72;;;2.15;;
26951;SDS011;14507;52.418;13.398;2023-08-20T09:56:00;5.82;;;2.80;;
26951;SDS011;14507;52.418;13.398;2023-08-20T09:58:35;4.40;;;2.30;;
26951;SDS011;14507;52.418;13.398;2023-08-20T10:01:04;3.72;;;1.98;;
26951;SDS011;14507;52.418;13.398;2023-08-20T10:03:31;3.55;;;1.98;;
26951;SDS011;14507;52.418;13.398;2023-08-20T10:05:58;4.45;;;1.75;;
26951;SDS011;14507;52.418;13.398;2023-08-20T10:08:25;4.18;;;2.00;;
26951;SDS011;14507;52.418;13.398;2023-08-20T10:10:52;3.95;;;2.03;;
26951;SDS011;14507;52.418;13.398;2023-08-20T10:13:18;4.95;;;2.22;;
26951;SDS011;14507;52.418;13.398;2023-08-20T10:15:44;3.83;;;2.05;;
26951;SDS011;14507;52.418;13.398;2023-08-20T10:18:11;4.70;;;2.10;;
26951;SDS011;14507;52.418;13.398;2023-08-20T10:20:38;3.45;;;1.83;;
26951;SDS011;14507;52.418;13.398;2023-08-20T10:23:05;4.30;;;2.33;;
26951;SDS011;14507;52.418;13.398;2023-08-20T10:25:31;3.83;;;2.08;;
26951;SDS011;14507;52.418;13.398;2023-08-20T10:28:11;6.82;;;1.85;;
26951;SDS011;14507;52.418;13.398;2023-08-20T10:31:11;4.93;;;2.30;;
26951;SDS011;14507;52.418;13.398;2023-08-20T10:36:12;4.38;;;1.83;;
26951;SDS011;14507;52.418;13.398;2023-08-20T10:38:44;4.13;;;1.88;;
26951;SDS011;14507;52.418;13.398;2023-08-20T10:41:11;5.60;;;1.92;;
26951;SDS011;14507;52.418;13.398;2023-08-20T10:48:46;3.60;;;1.90;;
26951;SDS011;14507;52.418;13.398;2023-08-20T10:51:14;3.65;;;2.03;;
26951;SDS011;14507;52.418;13.398;2023-08-20T10:53:42;3.05;;;1.83;;
26951;SDS011;14507;52.418;13.398;2023-08-20T10:56:13;4.22;;;2.30;;
26951;SDS011;14507;52.418;13.398;2023-08-20T10:58:41;4.25;;;1.92;;
26951;SDS011;14507;52.418;13.398;2023-08-20T11:03:47;3.55;;;2.00;;
26951;SDS011;14507;52.418;13.398;2023-08-20T11:06:14;4.05;;;1.60;;
26951;SDS011;14507;52.418;13.398;2023-08-20T11:08:40;3.25;;;2.03;;
26951;SDS011;14507;52.418;13.398;2023-08-20T11:11:07;4.70;;;1.92;;
26951;SDS011;14507;52.418;13.398;2023-08-20T11:13:33;3.80;;;1.95;;
26951;SDS011;14507;52.418;13.398;2023-08-20T11:16:01;4.88;;;1.90;;
26951;SDS011;14507;52.418;13.398;2023-08-20T11:18:27;3.15;;;1.92;;
26951;SDS011;14507;52.418;13.398;2023-08-20T11:20:56;3.45;;;2.10;;
26951;SDS011;14507;52.418;13.398;2023-08-20T11:23:22;3.00;;;1.83;;
26951;SDS011;14507;52.418;13.398;2023-08-20T11:25:48;3.20;;;1.85;;
26951;SDS011;14507;52.418;13.398;2023-08-20T11:28:14;3.17;;;1.98;;
26951;SDS011;14507;52.418;13.398;2023-08-20T11:30:39;3.78;;;1.92;;
26951;SDS011;14507;52.418;13.398;2023-08-20T11:33:05;4.97;;;1.90;;
26951;SDS011;14507;52.418;13.398;2023-08-20T11:35:31;4.05;;;1.70;;
26951;SDS011;14507;52.418;13.398;2023-08-20T11:37:58;4.63;;;1.90;;
26951;SDS011;14507;52.418;13.398;2023-08-20T11:40:24;3.25;;;1.65;;
26951;SDS011;14507;52.418;13.398;2023-08-20T11:42:49;6.78;;;1.90;;
26951;SDS011;14507;52.418;13.398;2023-08-20T11:45:15;5.43;;;1.98;;
26951;SDS011;14507;52.418;13.398;2023-08-20T11:47:41;3.60;;;1.52;;
26951;SDS011;14507;52.418;13.398;2023-08-20T11:50:07;5.00;;;1.95;;
26951;SDS011;14507;52.418;13.398;2023-08-20T11:52:35;2.97;;;1.65;;
26951;SDS011;14507;52.418;13.398;2023-08-20T11:55:02;2.78;;;1.75;;
26951;SDS011;14507;52.418;13.398;2023-08-20T11:57:29;3.20;;;1.70;;
26951;SDS011;14507;52.418;13.398;2023-08-20T11:59:55;5.10;;;1.65;;
26951;SDS011;14507;52.418;13.398;2023-08-20T12:02:25;3.72;;;1.70;;
26951;SDS011;14507;52.418;13.398;2023-08-20T12:04:52;3.38;;;1.77;;
26951;SDS011;14507;52.418;13.398;2023-08-20T12:07:20;3.60;;;1.77;;
26951;SDS011;14507;52.418;13.398;2023-08-20T12:09:50;3.58;;;1.70;;
26951;SDS011;14507;52.418;13.398;2023-08-20T12:12:16;2.15;;;1.25;;
26951;SDS011;14507;52.418;13.398;2023-08-20T12:14:45;2.78;;;1.67;;
26951;SDS011;14507;52.418;13.398;2023-08-20T12:17:11;3.75;;;1.80;;
26951;SDS011;14507;52.418;13.398;2023-08-20T12:19:37;3.92;;;1.75;;
26951;SDS011;14507;52.418;13.398;2023-08-20T12:22:02;3.97;;;1.58;;
26951;SDS011;14507;52.418;13.398;2023-08-20T12:24:28;5.30;;;1.70;;
26951;SDS011;14507;52.418;13.398;2023-08-20T12:26:54;6.28;;;2.03;;
26951;SDS011;14507;52.418;13.398;2023-08-20T12:29:20;3.42;;;2.13;;
26951;SDS011;14507;52.418;13.398;2023-08-20T12:31:46;3.10;;;1.50;;
26951;SDS011;14507;52.418;13.398;2023-08-20T12:34:11;4.03;;;1.90;;
26951;SDS011;14507;52.418;13.398;2023-08-20T12:36:37;4.43;;;1.35;;
26951;SDS011;14507;52.418;13.398;2023-08-20T12:39:03;3.42;;;1.70;;
26951;SDS011;14507;52.418;13.398;2023-08-20T12:41:29;4.23;;;1.60;;
26951;SDS011;14507;52.418;13.398;2023-08-20T12:43:56;4.38;;;1.75;;
26951;SDS011;14507;52.418;13.398;2023-08-20T12:46:22;3.47;;;1.85;;
26951;SDS011;14507;52.418;13.398;2023-08-20T12:48:47;3.33;;;1.85;;
26951;SDS011;14507;52.418;13.398;2023-08-20T12:51:13;4.20;;;1.70;;
26951;SDS011;14507;52.418;13.398;2023-08-20T12:53:42;3.78;;;1.40;;
26951;SDS011;14507;52.418;13.398;2023-08-20T12:56:08;6.03;;;1.40;;
26951;SDS011;14507;52.418;13.398;2023-08-20T12:58:33;2.60;;;1.45;;
26951;SDS011;14507;52.418;13.398;2023-08-20T13:00:59;2.70;;;1.40;;
26951;SDS011;14507;52.418;13.398;2023-08-20T13:03:25;2.65;;;1.10;;
26951;SDS011;14507;52.418;13.398;2023-08-20T13:08:18;2.83;;;1.10;;
26951;SDS011;14507;52.418;13.398;2023-08-20T13:10:45;2.42;;;1.25;;
26951;SDS011;14507;52.418;13.398;2023-08-20T13:13:18;4.13;;;1.30;;
26951;SDS011;14507;52.418;13.398;2023-08-20T13:15:46;3.33;;;1.48;;
26951;SDS011;14507;52.418;13.398;2023-08-20T13:18:13;2.75;;;1.38;;
26951;SDS011;14507;52.418;13.398;2023-08-20T13:20:39;2.05;;;1.00;;
26951;SDS011;14507;52.418;13.398;2023-08-20T13:23:05;4.88;;;1.23;;
26951;SDS011;14507;52.418;13.398;2023-08-20T13:25:31;2.58;;;1.15;;
26951;SDS011;14507;52.418;13.398;2023-08-20T13:27:56;3.20;;;1.13;;
26951;SDS011;14507;52.418;13.398;2023-08-20T13:30:22;1.77;;;0.73;;
26951;SDS011;14507;52.418;13.398;2023-08-20T13:32:48;4.07;;;1.20;;
26951;SDS011;14507;52.418;13.398;2023-08-20T13:35:14;3.35;;;0.82;;
26951;SDS011;14507;52.418;13.398;2023-08-20T13:37:40;5.35;;;1.10;;
26951;SDS011;14507;52.418;13.398;2023-08-20T13:40:06;2.75;;;0.73;;
26951;SDS011;14507;52.418;13.398;2023-08-20T13:42:34;2.75;;;0.80;;
26951;SDS011;14507;52.418;13.398;2023-08-20T13:45:00;1.70;;;0.73;;
26951;SDS011;14507;52.418;13.398;2023-08-20T13:47:25;2.95;;;1.08;;
26951;SDS011;14507;52.418;13.398;2023-08-20T13:49:51;1.95;;;0.70;;
26951;SDS011;14507;52.418;13.398;2023-08-20T13:52:17;1.77;;;0.70;;
26951;SDS011;14507;52.418;13.398;2023-08-20T13:54:42;2.28;;;0.90;;
26951;SDS011;14507;52.418;13.398;2023-08-20T13:57:09;5.68;;;1.10;;
26951;SDS011;14507;52.418;13.398;2023-08-20T13:59:35;6.10;;;1.15;;
26951;SDS011;14507;52.418;13.398;2023-08-20T14:02:01;2.28;;;1.00;;
26951;SDS011;14507;52.418;13.398;2023-08-20T14:04:27;2.65;;;1.20;;
26951;SDS011;14507;52.418;13.398;2023-08-20T14:06:52;2.22;;;1.10;;
26951;SDS011;14507;52.418;13.398;2023-08-20T14:09:19;3.28;;;0.98;;
26951;SDS011;14507;52.418;13.398;2023-08-20T14:11:45;2.08;;;1.05;;
26951;SDS011;14507;52.418;13.398;2023-08-20T14:14:11;5.07;;;1.20;;
26951;SDS011;14507;52.418;13.398;2023-08-20T14:16:37;3.38;;;1.20;;
26951;SDS011;14507;52.418;13.398;2023-08-20T14:19:02;4.82;;;1.10;;
26951;SDS011;14507;52.418;13.398;2023-08-20T14:21:28;2.15;;;1.20;;
26951;SDS011;14507;52.418;13.398;2023-08-20T14:23:54;3.28;;;1.27;;
26951;SDS011;14507;52.418;13.398;2023-08-20T14:26:19;4.47;;;1.38;;
26951;SDS011;14507;52.418;13.398;2023-08-20T14:28:45;3.25;;;1.45;;
26951;SDS011;14507;52.418;13.398;2023-08-20T14:31:11;4.30;;;1.08;;
26951;SDS011;14507;52.418;13.398;2023-08-20T14:33:36;3.53;;;1.20;;
26951;SDS011;14507;52.418;13.398;2023-08-20T14:36:02;4.10;;;1.17;;
26951;SDS011;14507;52.418;13.398;2023-08-20T14:38:31;2.90;;;1.00;;
26951;SDS011;14507;52.418;13.398;2023-08-20T14:41:00;3.15;;;1.23;;
26951;SDS011;14507;52.418;13.398;2023-08-20T14:43:27;7.82;;;1.55;;
26951;SDS011;14507;52.418;13.398;2023-08-20T14:45:52;4.65;;;1.45;;